sensor_id;sensor_type;location;lat;lon;timestamp;P1;durP1;ratioP1;P2;durP2;ratioP2
4698;SDS011;33708;49.466;11.176;2023-03-04T00:00:06;32.57;;;14.67;;
4698;SDS011;33708;49.466;11.176;2023-03-04T00:02:33;30.90;;;15.30;;
4698;SDS011;33708;49.466;11.176;2023-03-04T00:04:58;30.50;;;14.20;;
4698;SDS011;33708;49.466;11.176;2023-03-04T00:07:24;32.70;;;14.60;;
4698;SDS011;33708;49.466;11.176;2023-03-04T00:09:50;33.17;;;14.50;;
4698;SDS011;33708;49.466;11.176;2023-03-04T00:12:15;35.03;;;15.77;;
4698;SDS011;33708;49.466;11.176;2023-03-04T00:14:41;29.93;;;14.17;;
4698;SDS011;33708;49.466;11.176;2023-03-04T00:17:06;36.97;;;15.97;;
4698;SDS011;33708;49.466;11.176;2023-03-04T00:19:33;30.27;;;13.90;;
4698;SDS011;33708;49.466;11.176;2023-03-04T00:21:59;34.07;;;15.53;;
4698;SDS011;33708;49.466;11.176;2023-03-04T00:24:25;33.30;;;15.50;;
4698;SDS011;33708;49.466;11.176;2023-03-04T00:26:50;37.90;;;15.23;;
4698;SDS011;33708;49.466;11.176;2023-03-04T00:29:16;29.13;;;13.37;;
4698;SDS011;33708;49.466;11.176;2023-03-04T00:31:41;30.87;;;14.80;;
4698;SDS011;33708;49.466;11.176;2023-03-04T00:34:07;33.17;;;16.03;;
4698;SDS011;33708;49.466;11.176;2023-03-04T00:36:33;33.07;;;15.70;;
4698;SDS011;33708;49.466;11.176;2023-03-04T00:38:58;29.10;;;13.90;;
4698;SDS011;33708;49.466;11.176;2023-03-04T00:41:24;31.90;;;14.80;;
4698;SDS011;33708;49.466;11.176;2023-03-04T00:43:49;33.87;;;15.50;;
4698;SDS011;33708;49.466;11.176;2023-03-04T00:46:15;35.57;;;15.67;;
4698;SDS011;33708;49.466;11.176;2023-03-04T00:48:41;38.53;;;17.60;;
4698;SDS011;33708;49.466;11.176;2023-03-04T00:51:06;38.60;;;17.70;;
4698;SDS011;33708;49.466;11.176;2023-03-04T00:53:32;36.30;;;16.20;;
4698;SDS011;33708;49.466;11.176;2023-03-04T00:55:57;33.83;;;16.07;;
4698;SDS011;33708;49.466;11.176;2023-03-04T00:58:23;34.37;;;15.10;;
4698;SDS011;33708;49.466;11.176;2023-03-04T01:00:49;34.87;;;16.13;;
4698;SDS011;33708;49.466;11.176;2023-03-04T01:03:14;36.33;;;15.43;;
4698;SDS011;33708;49.466;11.176;2023-03-04T01:05:40;33.90;;;14.93;;
4698;SDS011;33708;49.466;11.176;2023-03-04T01:08:05;35.97;;;16.23;;
4698;SDS011;33708;49.466;11.176;2023-03-04T01:10:31;36.17;;;16.03;;
4698;SDS011;33708;49.466;11.176;2023-03-04T01:12:57;35.93;;;16.43;;
4698;SDS011;33708;49.466;11.176;2023-03-04T01:15:23;33.97;;;15.00;;
4698;SDS011;33708;49.466;11.176;2023-03-04T01:17:48;31.40;;;14.80;;
4698;SDS011;33708;49.466;11.176;2023-03-04T01:20:14;34.30;;;16.87;;
4698;SDS011;33708;49.466;11.176;2023-03-04T01:22:40;39.70;;;17.10;;
4698;SDS011;33708;49.466;11.176;2023-03-04T01:25:06;32.97;;;15.20;;
4698;SDS011;33708;49.466;11.176;2023-03-04T01:27:33;35.23;;;15.20;;
4698;SDS011;33708;49.466;11.176;2023-03-04T01:29:59;37.03;;;16.20;;
4698;SDS011;33708;49.466;11.176;2023-03-04T01:32:24;39.73;;;16.53;;
4698;SDS011;33708;49.466;11.176;2023-03-04T01:34:50;38.63;;;16.83;;
4698;SDS011;33708;49.466;11.176;2023-03-04T01:37:16;33.13;;;15.50;;
4698;SDS011;33708;49.466;11.176;2023-03-04T01:39:41;35.47;;;16.63;;
4698;SDS011;33708;49.466;11.176;2023-03-04T01:42:17;38.20;;;16.53;;
4698;SDS011;33708;49.466;11.176;2023-03-04T01:44:44;33.00;;;16.30;;
4698;SDS011;33708;49.466;11.176;2023-03-04T01:47:12;44.30;;;17.03;;
4698;SDS011;33708;49.466;11.176;2023-03-04T01:49:37;39.63;;;17.83;;
4698;SDS011;33708;49.466;11.176;2023-03-04T01:52:04;34.43;;;15.67;;
4698;SDS011;33708;49.466;11.176;2023-03-04T01:54:30;34.47;;;15.87;;
4698;SDS011;33708;49.466;11.176;2023-03-04T01:56:55;38.17;;;17.17;;
4698;SDS011;33708;49.466;11.176;2023-03-04T01:59:24;34.60;;;15.43;;
4698;SDS011;33708;49.466;11.176;2023-03-04T02:01:55;33.07;;;15.27;;
4698;SDS011;33708;49.466;11.176;2023-03-04T02:04:27;30.50;;;15.10;;
4698;SDS011;33708;49.466;11.176;2023-03-04T02:06:55;28.70;;;14.30;;
4698;SDS011;33708;49.466;11.176;2023-03-04T02:09:21;33.47;;;15.30;;
4698;SDS011;33708;49.466;11.176;2023-03-04T02:11:48;34.23;;;16.03;;
4698;SDS011;33708;49.466;11.176;2023-03-04T02:14:16;30.23;;;15.27;;
4698;SDS011;33708;49.466;11.176;2023-03-04T02:16:42;30.00;;;14.67;;
4698;SDS011;33708;49.466;11.176;2023-03-04T02:19:53;27.97;;;14.50;;
4698;SDS011;33708;49.466;11.176;2023-03-04T02:21:59;35.47;;;16.60;;
4698;SDS011;33708;49.466;11.176;2023-03-04T02:24:35;28.33;;;13.80;;
4698;SDS011;33708;49.466;11.176;2023-03-04T02:27:05;28.40;;;13.80;;
4698;SDS011;33708;49.466;11.176;2023-03-04T02:29:30;34.60;;;14.67;;
4698;SDS011;33708;49.466;11.176;2023-03-04T02:31:56;33.17;;;13.90;;
4698;SDS011;33708;49.466;11.176;2023-03-04T02:34:23;28.00;;;13.83;;
4698;SDS011;33708;49.466;11.176;2023-03-04T02:36:51;36.23;;;15.67;;
4698;SDS011;33708;49.466;11.176;2023-03-04T02:39:24;35.87;;;16.23;;
4698;SDS011;33708;49.466;11.176;2023-03-04T02:41:53;30.80;;;14.27;;
4698;SDS011;33708;49.466;11.176;2023-03-04T02:44:20;30.67;;;14.10;;
4698;SDS011;33708;49.466;11.176;2023-03-04T02:46:49;29.17;;;13.87;;
4698;SDS011;33708;49.466;11.176;2023-03-04T02:49:16;32.33;;;14.80;;
4698;SDS011;33708;49.466;11.176;2023-03-04T02:51:42;34.80;;;14.77;;
4698;SDS011;33708;49.466;11.176;2023-03-04T02:54:18;30.63;;;13.80;;
4698;SDS011;33708;49.466;11.176;2023-03-04T02:56:50;27.57;;;13.47;;
4698;SDS011;33708;49.466;11.176;2023-03-04T02:59:18;28.53;;;13.20;;
4698;SDS011;33708;49.466;11.176;2023-03-04T03:01:44;28.40;;;13.90;;
4698;SDS011;33708;49.466;11.176;2023-03-04T03:04:10;27.13;;;12.73;;
4698;SDS011;33708;49.466;11.176;2023-03-04T03:06:38;26.17;;;13.67;;
4698;SDS011;33708;49.466;11.176;2023-03-04T03:09:04;27.60;;;13.57;;
4698;SDS011;33708;49.466;11.176;2023-03-04T03:11:29;27.60;;;12.60;;
4698;SDS011;33708;49.466;11.176;2023-03-04T03:13:55;28.33;;;12.93;;
4698;SDS011;33708;49.466;11.176;2023-03-04T03:16:21;27.53;;;11.77;;
4698;SDS011;33708;49.466;11.176;2023-03-04T03:18:47;29.53;;;14.47;;
4698;SDS011;33708;49.466;11.176;2023-03-04T03:21:13;32.53;;;14.90;;
4698;SDS011;33708;49.466;11.176;2023-03-04T03:23:38;27.77;;;12.97;;
4698;SDS011;33708;49.466;11.176;2023-03-04T03:26:04;28.30;;;14.70;;
4698;SDS011;33708;49.466;11.176;2023-03-04T03:28:30;26.80;;;13.40;;
4698;SDS011;33708;49.466;11.176;2023-03-04T03:30:56;28.37;;;13.53;;
4698;SDS011;33708;49.466;11.176;2023-03-04T03:33:22;27.63;;;12.40;;
4698;SDS011;33708;49.466;11.176;2023-03-04T03:35:47;24.80;;;13.30;;
4698;SDS011;33708;49.466;11.176;2023-03-04T03:38:13;29.23;;;13.60;;
4698;SDS011;33708;49.466;11.176;2023-03-04T03:40:39;29.73;;;14.80;;
4698;SDS011;33708;49.466;11.176;2023-03-04T03:43:04;26.23;;;13.87;;
4698;SDS011;33708;49.466;11.176;2023-03-04T03:45:30;26.90;;;14.33;;
4698;SDS011;33708;49.466;11.176;2023-03-04T03:47:56;27.63;;;14.53;;
4698;SDS011;33708;49.466;11.176;2023-03-04T03:50:21;25.97;;;14.07;;
4698;SDS011;33708;49.466;11.176;2023-03-04T03:52:47;25.53;;;12.57;;
4698;SDS011;33708;49.466;11.176;2023-03-04T03:55:12;25.90;;;13.13;;
4698;SDS011;33708;49.466;11.176;2023-03-04T03:57:38;30.30;;;13.93;;
4698;SDS011;33708;49.466;11.176;2023-03-04T04:00:04;26.90;;;13.67;;
4698;SDS011;33708;49.466;11.176;2023-03-04T04:02:31;26.33;;;13.03;;
4698;SDS011;33708;49.466;11.176;2023-03-04T04:04:57;29.23;;;15.80;;
4698;SDS011;33708;49.466;11.176;2023-03-04T04:07:22;29.30;;;15.50;;
4698;SDS011;33708;49.466;11.176;2023-03-04T04:09:48;30.60;;;15.10;;
4698;SDS011;33708;49.466;11.176;2023-03-04T04:12:14;30.47;;;16.47;;
4698;SDS011;33708;49.466;11.176;2023-03-04T04:14:41;44.33;;;16.13;;
4698;SDS011;33708;49.466;11.176;2023-03-04T04:17:08;33.27;;;16.77;;
4698;SDS011;33708;49.466;11.176;2023-03-04T04:19:34;30.43;;;14.97;;
4698;SDS011;33708;49.466;11.176;2023-03-04T04:22:00;29.70;;;15.67;;
4698;SDS011;33708;49.466;11.176;2023-03-04T04:24:26;30.53;;;14.30;;
4698;SDS011;33708;49.466;11.176;2023-03-04T04:26:51;29.53;;;16.00;;
4698;SDS011;33708;49.466;11.176;2023-03-04T04:29:17;30.17;;;15.30;;
4698;SDS011;33708;49.466;11.176;2023-03-04T04:31:43;27.07;;;14.63;;
4698;SDS011;33708;49.466;11.176;2023-03-04T04:34:08;29.17;;;15.23;;
4698;SDS011;33708;49.466;11.176;2023-03-04T04:36:34;29.53;;;14.23;;
4698;SDS011;33708;49.466;11.176;2023-03-04T04:39:00;26.90;;;13.33;;
4698;SDS011;33708;49.466;11.176;2023-03-04T04:41:27;28.50;;;13.17;;
4698;SDS011;33708;49.466;11.176;2023-03-04T04:43:55;26.30;;;13.17;;
4698;SDS011;33708;49.466;11.176;2023-03-04T04:46:21;26.27;;;13.80;;
4698;SDS011;33708;49.466;11.176;2023-03-04T04:48:47;24.60;;;12.90;;
4698;SDS011;33708;49.466;11.176;2023-03-04T04:51:13;25.53;;;13.10;;
4698;SDS011;33708;49.466;11.176;2023-03-04T04:53:39;27.13;;;13.93;;
4698;SDS011;33708;49.466;11.176;2023-03-04T04:56:11;24.67;;;12.17;;
4698;SDS011;33708;49.466;11.176;2023-03-04T04:58:39;27.13;;;13.37;;
4698;SDS011;33708;49.466;11.176;2023-03-04T05:01:05;28.23;;;12.40;;
4698;SDS011;33708;49.466;11.176;2023-03-04T05:03:31;28.77;;;14.07;;
4698;SDS011;33708;49.466;11.176;2023-03-04T05:05:58;27.47;;;13.83;;
4698;SDS011;33708;49.466;11.176;2023-03-04T05:08:24;31.73;;;14.47;;
4698;SDS011;33708;49.466;11.176;2023-03-04T05:10:49;30.30;;;13.77;;
4698;SDS011;33708;49.466;11.176;2023-03-04T05:13:16;25.27;;;12.90;;
4698;SDS011;33708;49.466;11.176;2023-03-04T05:15:43;26.57;;;13.40;;
4698;SDS011;33708;49.466;11.176;2023-03-04T05:18:09;30.37;;;14.03;;
4698;SDS011;33708;49.466;11.176;2023-03-04T05:20:35;26.30;;;13.33;;
4698;SDS011;33708;49.466;11.176;2023-03-04T05:23:00;26.27;;;12.90;;
4698;SDS011;33708;49.466;11.176;2023-03-04T05:25:26;23.67;;;12.63;;
4698;SDS011;33708;49.466;11.176;2023-03-04T05:27:51;28.47;;;14.37;;
4698;SDS011;33708;49.466;11.176;2023-03-04T05:30:17;28.97;;;14.70;;
4698;SDS011;33708;49.466;11.176;2023-03-04T05:32:43;27.27;;;13.80;;
4698;SDS011;33708;49.466;11.176;2023-03-04T05:35:08;26.90;;;12.67;;
4698;SDS011;33708;49.466;11.176;2023-03-04T05:37:34;25.80;;;13.60;;
4698;SDS011;33708;49.466;11.176;2023-03-04T05:40:00;28.13;;;13.50;;
4698;SDS011;33708;49.466;11.176;2023-03-04T05:42:25;24.40;;;12.90;;
4698;SDS011;33708;49.466;11.176;2023-03-04T05:44:51;28.87;;;13.83;;
4698;SDS011;33708;49.466;11.176;2023-03-04T05:47:16;27.13;;;13.57;;
4698;SDS011;33708;49.466;11.176;2023-03-04T05:49:42;29.17;;;13.37;;
4698;SDS011;33708;49.466;11.176;2023-03-04T05:52:08;25.40;;;11.80;;
4698;SDS011;33708;49.466;11.176;2023-03-04T05:54:34;28.27;;;13.73;;
4698;SDS011;33708;49.466;11.176;2023-03-04T05:57:00;28.63;;;13.63;;
4698;SDS011;33708;49.466;11.176;2023-03-04T05:59:26;30.43;;;13.67;;
4698;SDS011;33708;49.466;11.176;2023-03-04T06:01:52;32.23;;;15.10;;
4698;SDS011;33708;49.466;11.176;2023-03-04T06:04:17;27.20;;;14.10;;
4698;SDS011;33708;49.466;11.176;2023-03-04T06:06:43;33.50;;;16.53;;
4698;SDS011;33708;49.466;11.176;2023-03-04T06:09:11;31.40;;;14.40;;
4698;SDS011;33708;49.466;11.176;2023-03-04T06:11:37;28.33;;;14.63;;
4698;SDS011;33708;49.466;11.176;2023-03-04T06:14:03;32.47;;;14.80;;
4698;SDS011;33708;49.466;11.176;2023-03-04T06:16:29;26.83;;;13.47;;
4698;SDS011;33708;49.466;11.176;2023-03-04T06:18:54;28.27;;;14.83;;
4698;SDS011;33708;49.466;11.176;2023-03-04T06:21:20;36.43;;;18.33;;
4698;SDS011;33708;49.466;11.176;2023-03-04T06:23:46;30.60;;;15.50;;
4698;SDS011;33708;49.466;11.176;2023-03-04T06:26:12;32.90;;;15.83;;
4698;SDS011;33708;49.466;11.176;2023-03-04T06:28:39;35.07;;;16.83;;
4698;SDS011;33708;49.466;11.176;2023-03-04T06:31:06;28.77;;;14.43;;
4698;SDS011;33708;49.466;11.176;2023-03-04T06:33:31;28.57;;;14.07;;
4698;SDS011;33708;49.466;11.176;2023-03-04T06:35:57;36.97;;;14.40;;
4698;SDS011;33708;49.466;11.176;2023-03-04T06:38:23;36.00;;;15.10;;
4698;SDS011;33708;49.466;11.176;2023-03-04T06:40:50;30.40;;;15.50;;
4698;SDS011;33708;49.466;11.176;2023-03-04T06:43:16;25.60;;;13.20;;
4698;SDS011;33708;49.466;11.176;2023-03-04T06:45:42;33.97;;;14.10;;
4698;SDS011;33708;49.466;11.176;2023-03-04T06:48:08;27.40;;;12.60;;
4698;SDS011;33708;49.466;11.176;2023-03-04T06:50:34;27.40;;;13.07;;
4698;SDS011;33708;49.466;11.176;2023-03-04T06:53:00;27.07;;;13.00;;
4698;SDS011;33708;49.466;11.176;2023-03-04T06:55:25;28.67;;;13.47;;
4698;SDS011;33708;49.466;11.176;2023-03-04T06:57:51;25.63;;;12.57;;
4698;SDS011;33708;49.466;11.176;2023-03-04T07:00:17;27.60;;;14.00;;
4698;SDS011;33708;49.466;11.176;2023-03-04T07:02:43;29.67;;;14.43;;
4698;SDS011;33708;49.466;11.176;2023-03-04T07:05:09;28.20;;;14.57;;
4698;SDS011;33708;49.466;11.176;2023-03-04T07:07:36;32.07;;;13.83;;
4698;SDS011;33708;49.466;11.176;2023-03-04T07:10:02;34.53;;;15.40;;
4698;SDS011;33708;49.466;11.176;2023-03-04T07:12:28;31.97;;;14.43;;
4698;SDS011;33708;49.466;11.176;2023-03-04T07:14:54;30.23;;;13.17;;
4698;SDS011;33708;49.466;11.176;2023-03-04T07:17:19;31.40;;;15.07;;
4698;SDS011;33708;49.466;11.176;2023-03-04T07:19:45;32.97;;;15.20;;
4698;SDS011;33708;49.466;11.176;2023-03-04T07:22:11;31.27;;;14.30;;
4698;SDS011;33708;49.466;11.176;2023-03-04T07:24:36;31.90;;;15.90;;
4698;SDS011;33708;49.466;11.176;2023-03-04T07:27:02;30.60;;;15.70;;
4698;SDS011;33708;49.466;11.176;2023-03-04T07:29:27;34.03;;;16.10;;
4698;SDS011;33708;49.466;11.176;2023-03-04T07:31:53;34.07;;;16.27;;
4698;SDS011;33708;49.466;11.176;2023-03-04T07:34:19;34.20;;;14.90;;
4698;SDS011;33708;49.466;11.176;2023-03-04T07:36:45;35.83;;;16.00;;
4698;SDS011;33708;49.466;11.176;2023-03-04T07:39:11;30.33;;;14.67;;
4698;SDS011;33708;49.466;11.176;2023-03-04T07:41:37;30.57;;;14.50;;
4698;SDS011;33708;49.466;11.176;2023-03-04T07:44:04;33.77;;;13.93;;
4698;SDS011;33708;49.466;11.176;2023-03-04T07:46:31;29.40;;;15.63;;
4698;SDS011;33708;49.466;11.176;2023-03-04T07:48:57;35.80;;;17.67;;
4698;SDS011;33708;49.466;11.176;2023-03-04T07:51:23;31.73;;;15.30;;
4698;SDS011;33708;49.466;11.176;2023-03-04T07:53:51;34.60;;;16.60;;
4698;SDS011;33708;49.466;11.176;2023-03-04T07:56:21;28.53;;;15.07;;
4698;SDS011;33708;49.466;11.176;2023-03-04T07:58:49;33.90;;;16.10;;
4698;SDS011;33708;49.466;11.176;2023-03-04T08:01:18;28.50;;;13.93;;
4698;SDS011;33708;49.466;11.176;2023-03-04T08:03:46;26.20;;;13.83;;
4698;SDS011;33708;49.466;11.176;2023-03-04T08:06:13;27.60;;;15.00;;
4698;SDS011;33708;49.466;11.176;2023-03-04T08:08:39;31.37;;;15.03;;
4698;SDS011;33708;49.466;11.176;2023-03-04T08:11:06;27.37;;;12.90;;
4698;SDS011;33708;49.466;11.176;2023-03-04T08:13:37;27.67;;;13.77;;
4698;SDS011;33708;49.466;11.176;2023-03-04T08:16:02;26.60;;;14.17;;
4698;SDS011;33708;49.466;11.176;2023-03-04T08:18:28;29.20;;;15.13;;
4698;SDS011;33708;49.466;11.176;2023-03-04T08:20:54;31.33;;;14.60;;
4698;SDS011;33708;49.466;11.176;2023-03-04T08:23:20;31.53;;;14.60;;
4698;SDS011;33708;49.466;11.176;2023-03-04T08:25:45;29.47;;;13.87;;
4698;SDS011;33708;49.466;11.176;2023-03-04T08:28:11;36.60;;;17.47;;
4698;SDS011;33708;49.466;11.176;2023-03-04T08:30:38;53.57;;;18.40;;
4698;SDS011;33708;49.466;11.176;2023-03-04T08:33:04;42.77;;;19.23;;
4698;SDS011;33708;49.466;11.176;2023-03-04T08:35:30;35.63;;;17.60;;
4698;SDS011;33708;49.466;11.176;2023-03-04T08:37:56;32.87;;;17.00;;
4698;SDS011;33708;49.466;11.176;2023-03-04T08:40:22;31.50;;;15.97;;
4698;SDS011;33708;49.466;11.176;2023-03-04T08:42:50;32.07;;;15.80;;
4698;SDS011;33708;49.466;11.176;2023-03-04T08:45:16;27.70;;;15.33;;
4698;SDS011;33708;49.466;11.176;2023-03-04T08:47:41;31.90;;;15.77;;
4698;SDS011;33708;49.466;11.176;2023-03-04T08:50:07;30.73;;;15.13;;
4698;SDS011;33708;49.466;11.176;2023-03-04T08:52:33;31.67;;;16.37;;
4698;SDS011;33708;49.466;11.176;2023-03-04T08:54:59;31.60;;;16.03;;
4698;SDS011;33708;49.466;11.176;2023-03-04T08:57:25;33.43;;;16.63;;
4698;SDS011;33708;49.466;11.176;2023-03-04T08:59:50;32.17;;;16.20;;
4698;SDS011;33708;49.466;11.176;2023-03-04T09:02:16;32.80;;;16.87;;
4698;SDS011;33708;49.466;11.176;2023-03-04T09:04:42;36.00;;;17.07;;
4698;SDS011;33708;49.466;11.176;2023-03-04T09:07:07;30.17;;;15.77;;
4698;SDS011;33708;49.466;11.176;2023-03-04T09:09:33;37.37;;;16.37;;
4698;SDS011;33708;49.466;11.176;2023-03-04T09:11:59;31.03;;;16.50;;
4698;SDS011;33708;49.466;11.176;2023-03-04T09:14:25;29.83;;;14.57;;
4698;SDS011;33708;49.466;11.176;2023-03-04T09:16:51;34.70;;;18.10;;
4698;SDS011;33708;49.466;11.176;2023-03-04T09:19:17;34.50;;;16.10;;
4698;SDS011;33708;49.466;11.176;2023-03-04T09:21:42;33.57;;;16.80;;
4698;SDS011;33708;49.466;11.176;2023-03-04T09:24:08;34.37;;;17.43;;
4698;SDS011;33708;49.466;11.176;2023-03-04T09:26:33;33.67;;;16.77;;
4698;SDS011;33708;49.466;11.176;2023-03-04T09:29:00;29.03;;;15.40;;
4698;SDS011;33708;49.466;11.176;2023-03-04T09:31:27;29.07;;;15.10;;
4698;SDS011;33708;49.466;11.176;2023-03-04T09:33:53;30.00;;;16.07;;
4698;SDS011;33708;49.466;11.176;2023-03-04T09:36:20;31.47;;;16.17;;
4698;SDS011;33708;49.466;11.176;2023-03-04T09:38:46;28.90;;;15.63;;
4698;SDS011;33708;49.466;11.176;2023-03-04T09:41:22;29.50;;;15.50;;
4698;SDS011;33708;49.466;11.176;2023-03-04T09:43:54;30.23;;;16.27;;
4698;SDS011;33708;49.466;11.176;2023-03-04T09:46:22;28.10;;;14.50;;
4698;SDS011;33708;49.466;11.176;2023-03-04T09:48:58;33.30;;;16.07;;
4698;SDS011;33708;49.466;11.176;2023-03-04T10:05:11;31.80;;;17.20;;
4698;SDS011;33708;49.466;11.176;2023-03-04T10:07:42;34.00;;;17.43;;
4698;SDS011;33708;49.466;11.176;2023-03-04T10:10:16;31.83;;;15.47;;
4698;SDS011;33708;49.466;11.176;2023-03-04T10:12:48;32.70;;;16.70;;
4698;SDS011;33708;49.466;11.176;2023-03-04T10:15:30;27.30;;;14.73;;
4698;SDS011;33708;49.466;11.176;2023-03-04T10:18:00;28.37;;;15.07;;
4698;SDS011;33708;49.466;11.176;2023-03-04T10:20:32;30.10;;;15.03;;
4698;SDS011;33708;49.466;11.176;2023-03-04T10:23:15;29.73;;;16.53;;
4698;SDS011;33708;49.466;11.176;2023-03-04T10:25:44;33.10;;;16.33;;
4698;SDS011;33708;49.466;11.176;2023-03-04T10:28:15;27.77;;;14.83;;
4698;SDS011;33708;49.466;11.176;2023-03-04T10:30:47;26.40;;;15.20;;
4698;SDS011;33708;49.466;11.176;2023-03-04T10:33:21;30.53;;;16.13;;
4698;SDS011;33708;49.466;11.176;2023-03-04T10:35:58;27.70;;;14.33;;
4698;SDS011;33708;49.466;11.176;2023-03-04T10:38:24;25.93;;;15.33;;
4698;SDS011;33708;49.466;11.176;2023-03-04T10:40:50;27.20;;;13.93;;
4698;SDS011;33708;49.466;11.176;2023-03-04T10:43:19;27.00;;;15.60;;
4698;SDS011;33708;49.466;11.176;2023-03-04T10:45:46;29.50;;;16.10;;
4698;SDS011;33708;49.466;11.176;2023-03-04T10:48:26;26.23;;;14.83;;
4698;SDS011;33708;49.466;11.176;2023-03-04T10:50:53;26.23;;;14.10;;
4698;SDS011;33708;49.466;11.176;2023-03-04T10:53:38;28.43;;;15.17;;
4698;SDS011;33708;49.466;11.176;2023-03-04T11:01:53;36.43;;;16.63;;
4698;SDS011;33708;49.466;11.176;2023-03-04T11:04:19;29.17;;;17.00;;
4698;SDS011;33708;49.466;11.176;2023-03-04T11:06:51;30.30;;;13.83;;
4698;SDS011;33708;49.466;11.176;2023-03-04T11:09:21;29.20;;;16.03;;
4698;SDS011;33708;49.466;11.176;2023-03-04T11:11:49;29.00;;;15.80;;
4698;SDS011;33708;49.466;11.176;2023-03-04T11:14:24;32.63;;;15.87;;
4698;SDS011;33708;49.466;11.176;2023-03-04T11:17:01;31.03;;;16.10;;
4698;SDS011;33708;49.466;11.176;2023-03-04T11:19:41;27.73;;;14.33;;
4698;SDS011;33708;49.466;11.176;2023-03-04T11:22:14;29.20;;;15.17;;
4698;SDS011;33708;49.466;11.176;2023-03-04T11:24:42;25.37;;;15.00;;
4698;SDS011;33708;49.466;11.176;2023-03-04T11:27:13;30.73;;;15.17;;
4698;SDS011;33708;49.466;11.176;2023-03-04T11:29:50;28.33;;;14.83;;
4698;SDS011;33708;49.466;11.176;2023-03-04T11:32:30;30.10;;;14.97;;
4698;SDS011;33708;49.466;11.176;2023-03-04T11:35:24;32.50;;;14.03;;
4698;SDS011;33708;49.466;11.176;2023-03-04T11:40:52;24.23;;;12.93;;
4698;SDS011;33708;49.466;11.176;2023-03-04T11:46:23;30.13;;;14.90;;
4698;SDS011;33708;49.466;11.176;2023-03-04T12:00:31;27.47;;;14.20;;
4698;SDS011;33708;49.466;11.176;2023-03-04T12:08:49;27.93;;;15.33;;
4698;SDS011;33708;49.466;11.176;2023-03-04T12:11:44;30.30;;;14.27;;
4698;SDS011;33708;49.466;11.176;2023-03-04T12:19:57;26.67;;;13.90;;
4698;SDS011;33708;49.466;11.176;2023-03-04T12:27:50;28.93;;;16.13;;
4698;SDS011;33708;49.466;11.176;2023-03-04T12:39:14;27.17;;;14.97;;
4698;SDS011;33708;49.466;11.176;2023-03-04T12:53:32;29.33;;;14.80;;
4698;SDS011;33708;49.466;11.176;2023-03-04T12:56:26;29.07;;;14.30;;
4698;SDS011;33708;49.466;11.176;2023-03-04T12:59:01;28.30;;;13.57;;
4698;SDS011;33708;49.466;11.176;2023-03-04T13:04:29;30.77;;;14.10;;
4698;SDS011;33708;49.466;11.176;2023-03-04T13:09:46;25.90;;;13.50;;
4698;SDS011;33708;49.466;11.176;2023-03-04T13:12:20;26.20;;;14.50;;
4698;SDS011;33708;49.466;11.176;2023-03-04T13:15:31;29.70;;;13.57;;
4698;SDS011;33708;49.466;11.176;2023-03-04T13:17:49;25.90;;;12.60;;
4698;SDS011;33708;49.466;11.176;2023-03-04T13:20:37;23.00;;;13.37;;
4698;SDS011;33708;49.466;11.176;2023-03-04T13:25:42;24.27;;;12.60;;
4698;SDS011;33708;49.466;11.176;2023-03-04T13:31:03;26.63;;;14.50;;
4698;SDS011;33708;49.466;11.176;2023-03-04T13:36:00;29.90;;;13.50;;
4698;SDS011;33708;49.466;11.176;2023-03-04T13:43:35;38.03;;;12.70;;
4698;SDS011;33708;49.466;11.176;2023-03-04T13:56:26;26.83;;;13.27;;
4698;SDS011;33708;49.466;11.176;2023-03-04T14:01:33;32.93;;;12.20;;
4698;SDS011;33708;49.466;11.176;2023-03-04T14:03:59;23.53;;;11.40;;
4698;SDS011;33708;49.466;11.176;2023-03-04T14:06:34;36.37;;;12.10;;
4698;SDS011;33708;49.466;11.176;2023-03-04T14:09:13;26.57;;;11.63;;
4698;SDS011;33708;49.466;11.176;2023-03-04T14:11:40;27.40;;;12.30;;
4698;SDS011;33708;49.466;11.176;2023-03-04T14:14:10;30.43;;;11.63;;
4698;SDS011;33708;49.466;11.176;2023-03-04T14:16:54;29.33;;;12.90;;
4698;SDS011;33708;49.466;11.176;2023-03-04T14:21:56;31.80;;;12.23;;
4698;SDS011;33708;49.466;11.176;2023-03-04T14:24:23;26.27;;;13.20;;
4698;SDS011;33708;49.466;11.176;2023-03-04T14:26:49;28.30;;;12.67;;
4698;SDS011;33708;49.466;11.176;2023-03-04T14:29:33;31.93;;;14.23;;
4698;SDS011;33708;49.466;11.176;2023-03-04T14:31:59;35.60;;;14.30;;
4698;SDS011;33708;49.466;11.176;2023-03-04T14:34:30;32.07;;;12.97;;
4698;SDS011;33708;49.466;11.176;2023-03-04T14:37:02;26.90;;;12.17;;
4698;SDS011;33708;49.466;11.176;2023-03-04T14:39:30;27.50;;;12.93;;
4698;SDS011;33708;49.466;11.176;2023-03-04T14:42:05;30.40;;;14.57;;
4698;SDS011;33708;49.466;11.176;2023-03-04T14:44:41;24.73;;;12.90;;
4698;SDS011;33708;49.466;11.176;2023-03-04T14:47:23;32.17;;;13.60;;
4698;SDS011;33708;49.466;11.176;2023-03-04T14:49:50;30.90;;;12.70;;
4698;SDS011;33708;49.466;11.176;2023-03-04T14:58:05;38.67;;;15.30;;
4698;SDS011;33708;49.466;11.176;2023-03-04T15:00:36;27.10;;;13.37;;
4698;SDS011;33708;49.466;11.176;2023-03-04T15:03:17;31.80;;;14.60;;
4698;SDS011;33708;49.466;11.176;2023-03-04T15:05:49;35.50;;;14.23;;
4698;SDS011;33708;49.466;11.176;2023-03-04T15:10:53;29.00;;;13.37;;
4698;SDS011;33708;49.466;11.176;2023-03-04T15:13:41;27.70;;;13.97;;
4698;SDS011;33708;49.466;11.176;2023-03-04T15:16:13;33.97;;;15.00;;
4698;SDS011;33708;49.466;11.176;2023-03-04T15:19:03;32.60;;;15.00;;
4698;SDS011;33708;49.466;11.176;2023-03-04T15:24:01;31.83;;;15.57;;
4698;SDS011;33708;49.466;11.176;2023-03-04T15:26:37;30.60;;;13.50;;
4698;SDS011;33708;49.466;11.176;2023-03-04T15:29:14;31.93;;;14.40;;
4698;SDS011;33708;49.466;11.176;2023-03-04T15:31:41;29.10;;;14.10;;
4698;SDS011;33708;49.466;11.176;2023-03-04T15:34:12;34.07;;;13.80;;
4698;SDS011;33708;49.466;11.176;2023-03-04T15:36:39;35.90;;;14.57;;
4698;SDS011;33708;49.466;11.176;2023-03-04T15:39:05;34.33;;;14.50;;
4698;SDS011;33708;49.466;11.176;2023-03-04T15:41:33;37.80;;;14.00;;
4698;SDS011;33708;49.466;11.176;2023-03-04T15:43:59;33.00;;;14.13;;
4698;SDS011;33708;49.466;11.176;2023-03-04T15:46:25;32.47;;;14.07;;
4698;SDS011;33708;49.466;11.176;2023-03-04T15:48:50;36.73;;;13.30;;
4698;SDS011;33708;49.466;11.176;2023-03-04T15:51:17;32.17;;;12.70;;
4698;SDS011;33708;49.466;11.176;2023-03-04T15:53:46;29.30;;;13.17;;
4698;SDS011;33708;49.466;11.176;2023-03-04T15:56:18;38.53;;;13.00;;
4698;SDS011;33708;49.466;11.176;2023-03-04T15:58:47;31.33;;;14.83;;
4698;SDS011;33708;49.466;11.176;2023-03-04T16:01:19;30.53;;;14.53;;
4698;SDS011;33708;49.466;11.176;2023-03-04T16:03:45;33.17;;;13.30;;
4698;SDS011;33708;49.466;11.176;2023-03-04T16:06:11;29.47;;;13.50;;
4698;SDS011;33708;49.466;11.176;2023-03-04T16:08:38;29.63;;;13.10;;
4698;SDS011;33708;49.466;11.176;2023-03-04T16:11:04;32.00;;;13.70;;
4698;SDS011;33708;49.466;11.176;2023-03-04T16:13:31;29.60;;;14.87;;
4698;SDS011;33708;49.466;11.176;2023-03-04T16:15:56;30.10;;;14.37;;
4698;SDS011;33708;49.466;11.176;2023-03-04T16:18:22;40.10;;;15.13;;
4698;SDS011;33708;49.466;11.176;2023-03-04T16:20:48;37.87;;;13.73;;
4698;SDS011;33708;49.466;11.176;2023-03-04T16:23:22;42.73;;;14.90;;
4698;SDS011;33708;49.466;11.176;2023-03-04T16:25:49;35.17;;;15.10;;